createdAt,value
2023-02-17T00:01:14.464Z,9.74
2023-02-17T00:03:48.305Z,9.76
2023-02-17T00:06:24.651Z,9.94
2023-02-17T00:08:58.167Z,10.00
2023-02-17T00:11:32.640Z,10.06
2023-02-17T00:14:05.782Z,10.22
2023-02-17T00:16:38.771Z,10.25
2023-02-17T00:19:26.377Z,10.41
2023-02-17T00:22:01.321Z,10.53
2023-02-17T00:24:38.901Z,10.33
2023-02-17T00:27:13.247Z,10.43
2023-02-17T00:29:46.456Z,10.59
2023-02-17T00:32:19.541Z,10.71
2023-02-17T00:34:55.441Z,10.65
2023-02-17T00:37:28.426Z,10.60
2023-02-17T00:40:01.503Z,10.57
2023-02-17T00:42:35.922Z,10.54
2023-02-17T00:45:10.241Z,10.63
2023-02-17T00:47:43.452Z,10.58
2023-02-17T00:50:16.660Z,10.53
2023-02-17T00:52:49.712Z,10.60
2023-02-17T00:55:22.739Z,10.56
2023-02-17T00:57:57.213Z,10.63
2023-02-17T01:00:30.343Z,10.70
2023-02-17T01:03:03.521Z,10.68
2023-02-17T01:05:42.451Z,10.66
2023-02-17T01:08:16.361Z,10.71
2023-02-17T01:10:50.873Z,10.82
2023-02-17T01:13:25.357Z,10.79
2023-02-17T01:15:58.739Z,10.66
2023-02-17T01:18:31.843Z,10.69
2023-02-17T01:21:05.136Z,10.71
2023-02-17T01:23:38.216Z,10.90
2023-02-17T01:26:15.751Z,10.91
2023-02-17T01:28:52.257Z,10.92
2023-02-17T01:31:27.849Z,11.00
2023-02-17T01:34:04.636Z,11.06
2023-02-17T01:36:37.713Z,11.13
2023-02-17T01:39:14.279Z,11.17
2023-02-17T01:41:47.654Z,11.17
2023-02-17T01:44:24.396Z,11.23
2023-02-17T01:46:57.679Z,11.20
2023-02-17T01:49:35.479Z,11.38
2023-02-17T01:52:16.108Z,11.33
2023-02-17T01:54:52.476Z,11.22
2023-02-17T01:57:31.859Z,11.27
2023-02-17T02:00:10.450Z,11.33
2023-02-17T02:02:49.265Z,11.37
2023-02-17T02:05:23.354Z,11.20
2023-02-17T02:07:56.715Z,11.15
2023-02-17T02:10:29.777Z,11.10
2023-02-17T02:13:02.961Z,11.05
2023-02-17T02:15:47.654Z,11.02
2023-02-17T02:18:45.576Z,11.03
2023-02-17T02:21:53.871Z,11.10
2023-02-17T02:24:40.004Z,11.11
2023-02-17T02:27:47.415Z,11.07
2023-02-17T02:30:51.379Z,11.00
2023-02-17T02:33:36.833Z,10.93
2023-02-17T02:36:15.845Z,11.00
2023-02-17T02:38:54.850Z,10.92
2023-02-17T02:41:32.823Z,10.90
2023-02-17T02:44:07.731Z,10.96
2023-02-17T02:46:41.277Z,11.10
2023-02-17T02:49:15.643Z,11.23
2023-02-17T02:51:55.793Z,11.10
2023-02-17T02:54:44.344Z,11.11
2023-02-17T02:57:34.544Z,11.02
2023-02-17T03:00:20.525Z,11.00
2023-02-17T03:02:59.954Z,10.97
2023-02-17T03:05:45.910Z,10.88
2023-02-17T03:08:25.588Z,10.96
2023-02-17T03:10:58.911Z,10.88
2023-02-17T03:13:37.925Z,10.85
2023-02-17T03:16:12.962Z,10.86
2023-02-17T03:18:46.058Z,10.89
2023-02-17T03:21:20.825Z,11.05
2023-02-17T03:23:53.903Z,10.96
2023-02-17T03:26:26.974Z,10.90
2023-02-17T03:29:00.154Z,10.89
2023-02-17T03:31:33.975Z,10.90
2023-02-17T03:34:07.387Z,10.87
2023-02-17T03:36:41.802Z,10.99
2023-02-17T03:39:14.868Z,10.91
2023-02-17T03:41:50.533Z,10.83
2023-02-17T03:44:23.633Z,11.04
2023-02-17T03:46:56.684Z,11.07
2023-02-17T03:49:29.974Z,11.04
2023-02-17T03:52:04.607Z,10.94
2023-02-17T03:54:38.640Z,10.87
2023-02-17T03:57:11.848Z,10.85
2023-02-17T03:59:45.528Z,10.82
2023-02-17T04:02:18.578Z,10.89
2023-02-17T04:04:51.638Z,10.86
2023-02-17T04:07:26.064Z,10.99
2023-02-17T04:09:59.121Z,10.89
2023-02-17T04:12:32.152Z,10.94
2023-02-17T04:15:05.750Z,11.01
2023-02-17T04:17:39.682Z,10.96
2023-02-17T04:20:14.146Z,10.87
2023-02-17T04:22:48.624Z,10.85
2023-02-17T04:25:21.694Z,10.83
2023-02-17T04:27:54.687Z,10.82
2023-02-17T04:30:27.968Z,10.85
2023-02-17T04:33:01.642Z,10.86
2023-02-17T04:35:34.692Z,10.79
2023-02-17T04:38:10.356Z,10.81
2023-02-17T04:40:44.348Z,10.89
2023-02-17T04:43:17.348Z,10.80
2023-02-17T04:45:50.597Z,10.87
2023-02-17T04:48:23.943Z,10.91
2023-02-17T04:50:57.003Z,11.09
2023-02-17T04:53:31.504Z,11.09
2023-02-17T04:56:05.380Z,11.02
2023-02-17T04:58:38.646Z,10.98
2023-02-17T05:01:11.892Z,10.91
2023-02-17T05:03:45.000Z,11.06
2023-02-17T05:06:18.034Z,11.27
2023-02-17T05:08:53.755Z,11.18
2023-02-17T05:11:26.987Z,11.05
2023-02-17T05:13:59.982Z,10.99
2023-02-17T05:16:33.253Z,11.01
2023-02-17T05:19:06.320Z,10.97
2023-02-17T05:21:39.626Z,10.87
2023-02-17T05:24:14.064Z,10.82
2023-02-17T05:26:47.193Z,10.75
2023-02-17T05:29:20.458Z,10.77
2023-02-17T05:31:53.543Z,10.76
2023-02-17T05:34:26.664Z,10.71
2023-02-17T05:36:59.831Z,10.71
2023-02-17T05:39:34.171Z,10.73
2023-02-17T05:42:07.344Z,10.75
2023-02-17T05:44:40.424Z,10.79
2023-02-17T05:47:13.500Z,10.76
2023-02-17T05:49:46.611Z,10.75
2023-02-17T05:52:19.777Z,10.75
2023-02-17T05:54:54.248Z,10.76
2023-02-17T05:57:27.601Z,10.71
2023-02-17T06:00:00.829Z,10.66
2023-02-17T06:02:33.902Z,10.71
2023-02-17T06:05:08.480Z,10.70
2023-02-17T06:07:41.646Z,10.79
2023-02-17T06:10:16.401Z,10.75
2023-02-17T06:12:49.529Z,10.72
2023-02-17T06:15:23.036Z,10.71
2023-02-17T06:17:56.252Z,10.72
2023-02-17T06:20:29.546Z,10.78
2023-02-17T06:23:02.858Z,10.74
2023-02-17T06:25:37.411Z,10.76
2023-02-17T06:28:10.505Z,10.75
2023-02-17T06:30:43.628Z,10.77
2023-02-17T06:33:16.852Z,10.75
2023-02-17T06:35:51.222Z,10.73
2023-02-17T06:38:24.369Z,10.73
2023-02-17T06:40:58.908Z,10.70
2023-02-17T06:43:32.206Z,10.78
2023-02-17T06:46:06.543Z,10.76
2023-02-17T06:48:40.053Z,10.74
2023-02-17T06:51:13.241Z,10.73
2023-02-17T06:53:46.527Z,10.74
2023-02-17T06:56:21.481Z,10.74
2023-02-17T06:58:54.606Z,10.75
2023-02-17T07:01:28.131Z,10.76
2023-02-17T07:04:01.237Z,10.76
2023-02-17T07:06:34.516Z,10.81
2023-02-17T07:09:07.744Z,10.79
2023-02-17T07:11:45.187Z,10.81
2023-02-17T07:14:18.368Z,10.78
2023-02-17T07:16:51.997Z,10.79
2023-02-17T07:19:25.121Z,10.86
2023-02-17T07:21:58.322Z,10.89
2023-02-17T07:24:31.527Z,10.92
2023-02-17T07:27:10.608Z,10.99
2023-02-17T07:29:43.971Z,10.99
2023-02-17T07:32:17.334Z,11.00
2023-02-17T07:34:50.497Z,10.94
2023-02-17T07:37:23.629Z,10.99
2023-02-17T07:39:57.280Z,11.08
2023-02-17T07:42:31.905Z,11.10
2023-02-17T07:45:05.954Z,11.07
2023-02-17T07:47:39.250Z,11.12
2023-02-17T07:50:12.826Z,11.09
2023-02-17T07:52:46.199Z,11.08
2023-02-17T07:55:19.610Z,11.11
2023-02-17T07:57:54.232Z,11.10
2023-02-17T08:00:27.814Z,11.23
2023-02-17T08:03:01.418Z,11.32
2023-02-17T08:05:34.533Z,11.20
2023-02-17T08:08:25.684Z,11.22
2023-02-17T08:11:22.046Z,11.39
2023-02-17T08:13:56.869Z,11.35
2023-02-17T08:16:30.116Z,11.39
2023-02-17T08:19:03.399Z,11.47
2023-02-17T08:21:36.725Z,11.59
2023-02-17T08:24:09.869Z,11.75
2023-02-17T08:26:43.403Z,11.72
2023-02-17T08:29:20.274Z,11.69
2023-02-17T08:31:54.881Z,11.75
2023-02-17T08:34:28.813Z,11.90
2023-02-17T08:37:02.363Z,11.94
2023-02-17T08:39:37.027Z,12.02
2023-02-17T08:42:11.401Z,11.94
2023-02-17T08:44:46.299Z,12.02
2023-02-17T08:47:19.681Z,11.94
2023-02-17T08:49:52.852Z,11.96
2023-02-17T08:52:26.112Z,12.01
2023-02-17T08:54:59.639Z,11.95
2023-02-17T08:57:32.927Z,12.05
2023-02-17T09:00:10.272Z,12.21
2023-02-17T09:02:45.144Z,12.13
2023-02-17T09:05:18.310Z,12.21
2023-02-17T09:07:51.415Z,12.33
2023-02-17T09:10:24.742Z,12.29
2023-02-17T09:12:58.406Z,12.39
2023-02-17T09:15:33.324Z,12.28
2023-02-17T09:18:06.599Z,12.35
2023-02-17T09:20:40.268Z,12.29
2023-02-17T09:23:13.480Z,12.24
2023-02-17T09:25:47.472Z,12.44
2023-02-17T09:28:20.656Z,12.44
2023-02-17T09:30:55.487Z,12.60
2023-02-17T09:33:28.685Z,12.38
2023-02-17T09:36:02.089Z,12.31
2023-02-17T09:38:35.333Z,12.50
2023-02-17T09:41:19.013Z,12.49
2023-02-17T09:43:53.133Z,12.42
2023-02-17T09:46:31.650Z,12.48
2023-02-17T09:49:10.223Z,12.38
2023-02-17T09:51:46.977Z,12.22
2023-02-17T09:54:29.061Z,12.26
2023-02-17T09:57:04.986Z,12.37
2023-02-17T09:59:43.354Z,12.30
2023-02-17T10:02:26.930Z,12.45
2023-02-17T10:05:08.102Z,12.17
2023-02-17T10:07:47.334Z,12.33
2023-02-17T10:10:23.982Z,12.28
2023-02-17T10:12:59.691Z,12.39
2023-02-17T10:15:40.372Z,12.26
2023-02-17T10:18:21.230Z,12.34
2023-02-17T10:21:01.853Z,12.29
2023-02-17T10:23:36.341Z,12.37
2023-02-17T10:26:23.916Z,12.52
2023-02-17T10:29:05.783Z,12.57
2023-02-17T10:31:46.595Z,12.56
2023-02-17T10:34:35.665Z,12.65
2023-02-17T10:37:18.533Z,12.69
2023-02-17T10:39:54.409Z,12.78
2023-02-17T10:42:31.496Z,12.75
2023-02-17T10:45:12.290Z,12.54
2023-02-17T10:47:45.886Z,12.71
2023-02-17T10:50:23.907Z,12.87
2023-02-17T10:52:57.875Z,12.78
2023-02-17T10:55:38.069Z,12.82
2023-02-17T10:58:18.286Z,13.02
2023-02-17T11:00:57.459Z,12.97
2023-02-17T11:03:32.445Z,13.03
2023-02-17T11:06:17.937Z,13.24
2023-02-17T11:08:53.938Z,13.12
2023-02-17T11:11:30.522Z,13.13
2023-02-17T11:14:13.786Z,13.11
2023-02-17T11:16:53.811Z,13.21
2023-02-17T11:19:30.679Z,13.18
2023-02-17T11:22:23.416Z,13.25
2023-02-17T11:25:00.714Z,13.20
2023-02-17T11:27:34.062Z,13.21
2023-02-17T11:30:15.157Z,13.44
2023-02-17T11:32:48.664Z,13.47
2023-02-17T11:35:26.335Z,13.59
2023-02-17T11:38:10.865Z,13.80
2023-02-17T11:40:55.767Z,13.91
2023-02-17T11:43:29.722Z,13.98
2023-02-17T11:46:21.202Z,13.96
2023-02-17T11:50:00.640Z,13.79
2023-02-17T11:52:56.142Z,13.79
2023-02-17T11:55:42.602Z,13.84
2023-02-17T11:58:29.945Z,13.86
2023-02-17T12:01:12.763Z,13.83
2023-02-17T12:04:32.028Z,13.85
2023-02-17T12:07:29.356Z,13.86
2023-02-17T12:10:11.210Z,13.73
2023-02-17T12:13:02.305Z,13.60
2023-02-17T12:15:57.079Z,13.60
2023-02-17T12:18:49.443Z,13.48
2023-02-17T12:21:36.102Z,13.49
2023-02-17T12:24:28.398Z,13.59
2023-02-17T12:27:12.023Z,13.46
2023-02-17T12:30:18.773Z,13.42
2023-02-17T12:33:16.916Z,13.37
2023-02-17T12:35:54.011Z,13.36
2023-02-17T12:38:32.377Z,13.39
2023-02-17T12:41:10.757Z,13.41
2023-02-17T12:43:49.419Z,13.50
2023-02-17T12:46:28.747Z,13.39
2023-02-17T12:49:09.736Z,13.40
2023-02-17T12:51:48.818Z,13.40
2023-02-17T12:54:28.197Z,13.39
2023-02-17T12:57:14.955Z,13.44
2023-02-17T12:59:50.335Z,13.41
2023-02-17T13:02:26.912Z,13.47
2023-02-17T13:05:05.997Z,13.48
2023-02-17T13:07:45.859Z,13.46
2023-02-17T13:10:32.522Z,13.48
2023-02-17T13:13:12.158Z,13.56
2023-02-17T13:15:48.011Z,13.57
2023-02-17T13:18:33.146Z,13.68
2023-02-17T13:21:20.350Z,13.63
2023-02-17T13:24:02.194Z,13.59
2023-02-17T13:26:37.409Z,13.61
2023-02-17T13:29:34.071Z,13.57
2023-02-17T13:32:10.677Z,13.57
2023-02-17T13:34:46.945Z,13.67
2023-02-17T13:37:28.307Z,13.66
2023-02-17T13:40:02.979Z,13.60
2023-02-17T13:42:40.763Z,13.62
2023-02-17T13:45:25.736Z,13.62
2023-02-17T13:48:01.176Z,13.68
2023-02-17T13:50:38.708Z,13.69
2023-02-17T13:53:30.586Z,13.71
2023-02-17T13:56:07.042Z,13.75
2023-02-17T13:58:43.174Z,13.88
2023-02-17T14:01:19.307Z,13.81
2023-02-17T14:04:00.149Z,13.84
2023-02-17T14:06:38.191Z,13.88
2023-02-17T14:09:27.200Z,13.86
2023-02-17T14:12:04.592Z,13.89
2023-02-17T14:14:40.110Z,13.93
2023-02-17T14:17:32.733Z,13.96
2023-02-17T14:20:07.886Z,14.00
2023-02-17T14:22:41.844Z,14.02
2023-02-17T14:25:29.637Z,14.02
2023-02-17T14:28:03.122Z,14.04
2023-02-17T14:30:38.704Z,14.00
2023-02-17T14:33:23.564Z,13.96
2023-02-17T14:36:00.284Z,14.04
2023-02-17T14:38:37.730Z,14.00
2023-02-17T14:41:12.322Z,13.92
2023-02-17T14:43:45.551Z,14.04
2023-02-17T14:46:19.937Z,14.26
2023-02-17T14:48:55.396Z,14.36
2023-02-17T14:51:36.089Z,14.33
2023-02-17T14:54:16.263Z,14.29
2023-02-17T14:57:04.858Z,14.36
2023-02-17T14:59:38.070Z,14.34
2023-02-17T15:02:16.061Z,14.22
2023-02-17T15:04:49.307Z,14.18
2023-02-17T15:07:22.503Z,14.14
2023-02-17T15:09:56.492Z,14.12
2023-02-17T15:12:31.177Z,14.06
2023-02-17T15:15:04.814Z,14.09
2023-02-17T15:17:37.952Z,14.17
2023-02-17T15:20:12.969Z,14.14
2023-02-17T15:22:46.327Z,14.22
2023-02-17T15:25:23.090Z,14.32
2023-02-17T15:27:57.734Z,14.28
2023-02-17T15:30:31.324Z,14.35
2023-02-17T15:33:04.749Z,14.40
2023-02-17T15:35:38.188Z,14.40
2023-02-17T15:38:13.879Z,14.41
2023-02-17T15:40:47.259Z,14.31
2023-02-17T15:43:24.389Z,14.27
2023-02-17T15:45:57.789Z,14.24
2023-02-17T15:48:31.976Z,14.18
2023-02-17T15:51:06.605Z,14.20
2023-02-17T15:53:39.852Z,14.14
2023-02-17T15:56:20.154Z,14.22
2023-02-17T15:58:55.625Z,14.19
2023-02-17T16:01:31.045Z,14.12
2023-02-17T16:04:04.917Z,14.07
2023-02-17T16:06:38.908Z,14.19
2023-02-17T16:09:12.573Z,14.03
2023-02-17T16:11:50.992Z,14.00
2023-02-17T16:14:35.092Z,13.91
2023-02-17T16:17:15.386Z,14.01
2023-02-17T16:19:48.991Z,13.92
2023-02-17T16:22:22.197Z,14.05
2023-02-17T16:24:55.379Z,13.97
2023-02-17T16:27:28.648Z,13.99
2023-02-17T16:30:03.873Z,13.93
2023-02-17T16:32:37.700Z,13.84
2023-02-17T16:35:16.280Z,13.77
2023-02-17T16:37:56.030Z,13.75
2023-02-17T16:40:32.064Z,13.85
2023-02-17T16:43:05.901Z,13.66
2023-02-17T16:45:51.594Z,13.78
2023-02-17T16:48:26.739Z,13.76
2023-02-17T16:51:00.150Z,13.79
2023-02-17T16:53:33.318Z,13.93
2023-02-17T16:56:18.025Z,13.91
2023-02-17T16:58:51.587Z,13.85
2023-02-17T17:01:26.195Z,13.94
2023-02-17T17:03:59.393Z,13.88
2023-02-17T17:06:32.695Z,13.96
2023-02-17T17:09:07.062Z,13.95
2023-02-17T17:11:40.679Z,13.98
2023-02-17T17:14:14.883Z,13.95
2023-02-17T17:16:55.812Z,14.01
2023-02-17T17:19:29.142Z,13.90
2023-02-17T17:22:04.227Z,13.83
2023-02-17T17:24:38.084Z,14.01
2023-02-17T17:27:12.942Z,13.97
2023-02-17T17:29:46.206Z,14.00
2023-02-17T17:32:20.830Z,13.95
2023-02-17T17:34:55.128Z,14.01
2023-02-17T17:37:28.608Z,14.07
2023-02-17T17:40:01.807Z,14.08
2023-02-17T17:42:37.734Z,13.98
2023-02-17T17:45:11.481Z,14.10
2023-02-17T17:47:46.544Z,14.02
2023-02-17T17:50:23.548Z,13.98
2023-02-17T17:52:56.841Z,14.05
2023-02-17T17:55:30.121Z,14.07
2023-02-17T17:58:03.683Z,14.09
2023-02-17T18:00:37.280Z,14.00
2023-02-17T18:03:11.862Z,14.09
2023-02-17T18:05:45.386Z,14.12
2023-02-17T18:08:20.535Z,14.05
2023-02-17T18:10:53.874Z,14.07
2023-02-17T18:13:27.906Z,14.00
2023-02-17T18:16:01.589Z,14.04
2023-02-17T18:18:37.028Z,13.97
2023-02-17T18:21:10.366Z,14.03
2023-02-17T18:23:43.777Z,14.01
2023-02-17T18:26:18.602Z,14.04
2023-02-17T18:28:51.880Z,14.05
2023-02-17T18:31:28.644Z,14.03
2023-02-17T18:34:04.426Z,14.06
2023-02-17T18:36:37.953Z,13.94
2023-02-17T18:39:11.104Z,14.05
2023-02-17T18:41:45.702Z,13.96
2023-02-17T18:44:19.147Z,14.05
2023-02-17T18:46:52.599Z,14.16
2023-02-17T18:49:27.872Z,14.10
2023-02-17T18:52:01.181Z,14.07
2023-02-17T18:54:34.501Z,14.08
2023-02-17T18:57:07.722Z,14.04
2023-02-17T18:59:40.920Z,14.07
2023-02-17T19:02:14.238Z,14.02
2023-02-17T19:04:49.328Z,14.10
2023-02-17T19:07:23.477Z,14.02
2023-02-17T19:09:56.736Z,13.98
2023-02-17T19:12:30.042Z,13.99
2023-02-17T19:15:03.655Z,13.77
2023-02-17T19:17:36.826Z,13.74
2023-02-17T19:20:13.090Z,13.72
2023-02-17T19:22:46.237Z,13.71
2023-02-17T19:25:19.744Z,13.71
2023-02-17T19:27:52.976Z,13.59
2023-02-17T19:30:26.213Z,13.56
2023-02-17T19:32:59.438Z,13.62
2023-02-17T19:35:34.047Z,13.51
2023-02-17T19:38:07.467Z,13.69
2023-02-17T19:40:40.842Z,13.60
2023-02-17T19:43:14.244Z,13.41
2023-02-17T19:45:47.726Z,13.26
2023-02-17T19:48:24.207Z,13.16
2023-02-17T19:51:03.576Z,13.17
2023-02-17T19:53:37.166Z,13.03
2023-02-17T19:56:12.462Z,12.87
2023-02-17T19:58:47.923Z,12.89
2023-02-17T20:01:24.807Z,12.77
2023-02-17T20:03:59.649Z,12.50
2023-02-17T20:06:37.441Z,12.52
2023-02-17T20:09:14.789Z,12.42
2023-02-17T20:11:52.897Z,12.32
2023-02-17T20:14:26.318Z,12.35
2023-02-17T20:17:00.750Z,12.32
2023-02-17T20:19:37.680Z,12.11
2023-02-17T20:22:12.345Z,12.36
2023-02-17T20:24:45.600Z,12.39
2023-02-17T20:27:18.966Z,12.33
2023-02-17T20:29:52.165Z,12.36
2023-02-17T20:32:25.515Z,12.38
2023-02-17T20:34:58.796Z,12.37
2023-02-17T20:37:33.330Z,12.39
2023-02-17T20:40:08.355Z,12.24
2023-02-17T20:42:41.526Z,12.29
2023-02-17T20:45:14.797Z,12.42
2023-02-17T20:47:48.060Z,12.34
2023-02-17T20:50:23.634Z,12.14
2023-02-17T20:52:58.201Z,12.14
2023-02-17T20:55:31.864Z,12.09
2023-02-17T20:58:06.647Z,12.05
2023-02-17T21:00:40.758Z,11.97
2023-02-17T21:03:14.064Z,11.98
2023-02-17T21:05:47.360Z,12.06
2023-02-17T21:08:21.996Z,12.15
2023-02-17T21:10:55.147Z,12.31
2023-02-17T21:13:29.672Z,12.50
2023-02-17T21:16:03.267Z,12.66
2023-02-17T21:18:38.057Z,12.66
2023-02-17T21:21:11.496Z,12.60
2023-02-17T21:23:46.190Z,12.72
2023-02-17T21:26:19.525Z,12.65
2023-02-17T21:28:52.793Z,12.50
2023-02-17T21:31:28.921Z,12.56
2023-02-17T21:34:02.256Z,12.52
2023-02-17T21:36:36.124Z,12.60
2023-02-17T21:39:11.619Z,12.65
2023-02-17T21:41:45.031Z,12.73
2023-02-17T21:44:35.829Z,12.61
2023-02-17T21:47:09.139Z,12.59
2023-02-17T21:49:42.486Z,12.61
2023-02-17T21:52:16.304Z,12.65
2023-02-17T21:54:50.845Z,12.66
2023-02-17T21:57:24.111Z,12.63
2023-02-17T21:59:57.320Z,12.57
2023-02-17T22:02:30.594Z,12.59
2023-02-17T22:05:04.071Z,12.59
2023-02-17T22:07:37.865Z,12.52
2023-02-17T22:10:12.978Z,12.53
2023-02-17T22:12:46.154Z,12.53
2023-02-17T22:15:19.621Z,12.47
2023-02-17T22:17:52.849Z,12.41
2023-02-17T22:20:26.825Z,12.46
2023-02-17T22:23:00.086Z,12.43
2023-02-17T22:25:34.705Z,12.48
2023-02-17T22:28:10.305Z,12.41
2023-02-17T22:30:44.425Z,12.28
2023-02-17T22:33:17.770Z,12.26
2023-02-17T22:35:59.428Z,12.26
2023-02-17T22:38:33.022Z,12.36
2023-02-17T22:41:09.200Z,12.45
2023-02-17T22:43:44.045Z,12.50
2023-02-17T22:46:19.959Z,12.40
2023-02-17T22:48:54.493Z,12.45
2023-02-17T22:51:30.697Z,12.42
2023-02-17T22:54:04.751Z,12.53
2023-02-17T22:56:39.330Z,12.69
2023-02-17T22:59:12.643Z,12.67
2023-02-17T23:01:46.322Z,12.65
2023-02-17T23:04:19.831Z,12.85
2023-02-17T23:06:53.126Z,12.86
2023-02-17T23:09:26.429Z,12.86
2023-02-17T23:12:01.009Z,12.80
2023-02-17T23:14:36.974Z,12.85
2023-02-17T23:17:13.101Z,12.77
2023-02-17T23:19:46.463Z,12.75
2023-02-17T23:22:20.368Z,12.60
2023-02-17T23:24:53.614Z,12.63
2023-02-17T23:27:28.272Z,12.60
2023-02-17T23:30:01.526Z,12.70
2023-02-17T23:32:34.841Z,12.69
2023-02-17T23:35:08.484Z,12.67
2023-02-17T23:37:41.897Z,12.60
2023-02-17T23:40:16.254Z,12.54
2023-02-17T23:42:50.853Z,12.63
2023-02-17T23:45:24.076Z,12.67
2023-02-17T23:47:57.278Z,12.57
2023-02-17T23:50:30.456Z,12.55
2023-02-17T23:53:03.637Z,12.46
2023-02-17T23:55:36.946Z,12.46
2023-02-17T23:58:11.554Z,12.52
